sensor_id;sensor_type;location;lat;lon;timestamp;P1;durP1;ratioP1;P2;durP2;ratioP2
9128;SDS011;4599;50.906;6.786;2023-05-10T00:04:02;12.63;;;11.23;;
9128;SDS011;4599;50.906;6.786;2023-05-10T00:08:24;15.63;;;12.40;;
9128;SDS011;4599;50.906;6.786;2023-05-10T00:12:46;17.23;;;11.70;;
9128;SDS011;4599;50.906;6.786;2023-05-10T00:17:09;17.03;;;12.10;;
9128;SDS011;4599;50.906;6.786;2023-05-10T00:21:31;17.10;;;12.23;;
9128;SDS011;4599;50.906;6.786;2023-05-10T00:25:53;15.43;;;12.40;;
9128;SDS011;4599;50.906;6.786;2023-05-10T00:30:15;14.70;;;12.13;;
9128;SDS011;4599;50.906;6.786;2023-05-10T00:34:38;14.93;;;12.67;;
9128;SDS011;4599;50.906;6.786;2023-05-10T00:39:00;15.27;;;13.10;;
9128;SDS011;4599;50.906;6.786;2023-05-10T00:43:22;14.77;;;12.43;;
9128;SDS011;4599;50.906;6.786;2023-05-10T00:47:43;16.87;;;12.53;;
9128;SDS011;4599;50.906;6.786;2023-05-10T00:52:07;15.97;;;12.93;;
9128;SDS011;4599;50.906;6.786;2023-05-10T00:56:29;18.40;;;13.63;;
9128;SDS011;4599;50.906;6.786;2023-05-10T01:00:51;17.27;;;14.10;;
9128;SDS011;4599;50.906;6.786;2023-05-10T01:05:14;18.73;;;13.33;;
9128;SDS011;4599;50.906;6.786;2023-05-10T01:09:37;18.13;;;13.67;;
9128;SDS011;4599;50.906;6.786;2023-05-10T01:13:59;16.53;;;12.10;;
9128;SDS011;4599;50.906;6.786;2023-05-10T01:18:21;14.30;;;11.93;;
9128;SDS011;4599;50.906;6.786;2023-05-10T01:27:51;15.73;;;12.47;;
9128;SDS011;4599;50.906;6.786;2023-05-10T01:32:26;16.67;;;12.20;;
9128;SDS011;4599;50.906;6.786;2023-05-10T01:36:54;16.20;;;11.93;;
9128;SDS011;4599;50.906;6.786;2023-05-10T01:41:24;18.67;;;12.97;;
9128;SDS011;4599;50.906;6.786;2023-05-10T01:45:57;15.40;;;11.47;;
9128;SDS011;4599;50.906;6.786;2023-05-10T01:50:26;18.83;;;12.60;;
9128;SDS011;4599;50.906;6.786;2023-05-10T01:54:55;16.97;;;13.30;;
9128;SDS011;4599;50.906;6.786;2023-05-10T01:59:21;17.20;;;13.10;;
9128;SDS011;4599;50.906;6.786;2023-05-10T02:03:44;17.60;;;12.30;;
9128;SDS011;4599;50.906;6.786;2023-05-10T02:08:09;17.07;;;12.53;;
9128;SDS011;4599;50.906;6.786;2023-05-10T02:12:31;14.87;;;11.93;;
9128;SDS011;4599;50.906;6.786;2023-05-10T02:16:56;17.37;;;12.93;;
9128;SDS011;4599;50.906;6.786;2023-05-10T02:21:20;16.33;;;12.53;;
9128;SDS011;4599;50.906;6.786;2023-05-10T02:25:44;17.73;;;13.27;;
9128;SDS011;4599;50.906;6.786;2023-05-10T02:30:09;23.07;;;13.53;;
9128;SDS011;4599;50.906;6.786;2023-05-10T02:34:33;19.53;;;13.93;;
9128;SDS011;4599;50.906;6.786;2023-05-10T02:38:55;17.73;;;13.00;;
9128;SDS011;4599;50.906;6.786;2023-05-10T02:43:19;18.17;;;12.20;;
9128;SDS011;4599;50.906;6.786;2023-05-10T02:47:44;15.77;;;12.07;;
9128;SDS011;4599;50.906;6.786;2023-05-10T02:52:06;17.33;;;12.07;;
9128;SDS011;4599;50.906;6.786;2023-05-10T02:56:31;15.20;;;10.97;;
9128;SDS011;4599;50.906;6.786;2023-05-10T03:00:56;20.37;;;10.83;;
9128;SDS011;4599;50.906;6.786;2023-05-10T03:05:18;15.07;;;10.23;;
9128;SDS011;4599;50.906;6.786;2023-05-10T03:09:40;11.43;;;9.13;;
9128;SDS011;4599;50.906;6.786;2023-05-10T03:14:08;12.33;;;8.90;;
9128;SDS011;4599;50.906;6.786;2023-05-10T03:18:37;13.57;;;8.90;;
9128;SDS011;4599;50.906;6.786;2023-05-10T03:23:07;12.33;;;9.37;;
9128;SDS011;4599;50.906;6.786;2023-05-10T03:27:35;13.50;;;9.87;;
9128;SDS011;4599;50.906;6.786;2023-05-10T03:31:57;12.63;;;9.67;;
9128;SDS011;4599;50.906;6.786;2023-05-10T03:36:21;15.97;;;9.67;;
9128;SDS011;4599;50.906;6.786;2023-05-10T03:40:42;15.97;;;9.87;;
9128;SDS011;4599;50.906;6.786;2023-05-10T03:45:04;19.53;;;11.90;;
9128;SDS011;4599;50.906;6.786;2023-05-10T03:49:27;16.53;;;11.70;;
9128;SDS011;4599;50.906;6.786;2023-05-10T03:53:50;21.83;;;13.40;;
9128;SDS011;4599;50.906;6.786;2023-05-10T03:58:12;19.23;;;13.10;;
9128;SDS011;4599;50.906;6.786;2023-05-10T04:02:34;19.47;;;13.90;;
9128;SDS011;4599;50.906;6.786;2023-05-10T04:06:56;22.67;;;15.13;;
9128;SDS011;4599;50.906;6.786;2023-05-10T04:11:19;25.93;;;15.80;;
9128;SDS011;4599;50.906;6.786;2023-05-10T04:15:40;25.93;;;16.40;;
9128;SDS011;4599;50.906;6.786;2023-05-10T04:20:03;21.37;;;14.60;;
9128;SDS011;4599;50.906;6.786;2023-05-10T04:24:25;21.27;;;15.10;;
9128;SDS011;4599;50.906;6.786;2023-05-10T04:28:48;21.93;;;15.17;;
9128;SDS011;4599;50.906;6.786;2023-05-10T04:33:10;24.67;;;15.70;;
9128;SDS011;4599;50.906;6.786;2023-05-10T04:37:32;27.27;;;17.35;;
9128;SDS011;4599;50.906;6.786;2023-05-10T04:41:53;22.67;;;14.47;;
9128;SDS011;4599;50.906;6.786;2023-05-10T04:46:17;22.90;;;15.33;;
9128;SDS011;4599;50.906;6.786;2023-05-10T04:50:38;22.50;;;15.10;;
9128;SDS011;4599;50.906;6.786;2023-05-10T04:55:00;21.40;;;14.47;;
9128;SDS011;4599;50.906;6.786;2023-05-10T04:59:22;30.77;;;15.13;;
9128;SDS011;4599;50.906;6.786;2023-05-10T05:03:45;24.33;;;14.40;;
9128;SDS011;4599;50.906;6.786;2023-05-10T05:08:07;21.10;;;13.77;;
9128;SDS011;4599;50.906;6.786;2023-05-10T05:12:29;19.00;;;13.03;;
9128;SDS011;4599;50.906;6.786;2023-05-10T05:16:51;21.73;;;13.13;;
9128;SDS011;4599;50.906;6.786;2023-05-10T05:21:14;21.43;;;13.93;;
9128;SDS011;4599;50.906;6.786;2023-05-10T05:25:36;23.17;;;14.43;;
9128;SDS011;4599;50.906;6.786;2023-05-10T05:29:58;23.00;;;14.00;;
9128;SDS011;4599;50.906;6.786;2023-05-10T05:34:20;20.77;;;14.13;;
9128;SDS011;4599;50.906;6.786;2023-05-10T05:38:43;27.80;;;16.03;;
9128;SDS011;4599;50.906;6.786;2023-05-10T05:43:04;25.63;;;15.77;;
9128;SDS011;4599;50.906;6.786;2023-05-10T05:47:26;28.43;;;15.43;;
9128;SDS011;4599;50.906;6.786;2023-05-10T05:51:48;25.87;;;15.10;;
9128;SDS011;4599;50.906;6.786;2023-05-10T05:56:11;26.97;;;15.73;;
9128;SDS011;4599;50.906;6.786;2023-05-10T06:00:33;28.07;;;15.27;;
9128;SDS011;4599;50.906;6.786;2023-05-10T06:04:55;21.67;;;14.13;;
9128;SDS011;4599;50.906;6.786;2023-05-10T06:09:17;25.90;;;14.33;;
9128;SDS011;4599;50.906;6.786;2023-05-10T06:13:40;22.40;;;14.20;;
9128;SDS011;4599;50.906;6.786;2023-05-10T06:18:02;21.53;;;13.77;;
9128;SDS011;4599;50.906;6.786;2023-05-10T06:22:24;22.47;;;13.40;;
9128;SDS011;4599;50.906;6.786;2023-05-10T06:26:46;20.93;;;13.43;;
9128;SDS011;4599;50.906;6.786;2023-05-10T06:31:09;21.23;;;13.70;;
9128;SDS011;4599;50.906;6.786;2023-05-10T06:35:31;20.23;;;14.23;;
9128;SDS011;4599;50.906;6.786;2023-05-10T06:39:52;24.60;;;14.07;;
9128;SDS011;4599;50.906;6.786;2023-05-10T06:44:15;23.07;;;13.77;;
9128;SDS011;4599;50.906;6.786;2023-05-10T06:48:39;24.43;;;15.33;;
9128;SDS011;4599;50.906;6.786;2023-05-10T06:53:00;27.67;;;15.10;;
9128;SDS011;4599;50.906;6.786;2023-05-10T06:57:22;22.37;;;14.83;;
9128;SDS011;4599;50.906;6.786;2023-05-10T07:01:50;24.70;;;14.10;;
9128;SDS011;4599;50.906;6.786;2023-05-10T07:06:14;20.97;;;13.67;;
9128;SDS011;4599;50.906;6.786;2023-05-10T07:10:53;25.87;;;15.37;;
9128;SDS011;4599;50.906;6.786;2023-05-10T07:15:20;26.80;;;15.30;;
9128;SDS011;4599;50.906;6.786;2023-05-10T07:19:42;23.13;;;14.87;;
9128;SDS011;4599;50.906;6.786;2023-05-10T07:24:05;24.67;;;14.57;;
9128;SDS011;4599;50.906;6.786;2023-05-10T07:28:27;21.37;;;13.17;;
9128;SDS011;4599;50.906;6.786;2023-05-10T07:32:49;18.97;;;12.03;;
9128;SDS011;4599;50.906;6.786;2023-05-10T07:37:11;15.87;;;11.00;;
9128;SDS011;4599;50.906;6.786;2023-05-10T07:41:34;16.57;;;10.33;;
9128;SDS011;4599;50.906;6.786;2023-05-10T07:45:56;13.23;;;9.83;;
9128;SDS011;4599;50.906;6.786;2023-05-10T07:50:19;16.77;;;9.47;;
9128;SDS011;4599;50.906;6.786;2023-05-10T07:54:40;13.60;;;9.07;;
9128;SDS011;4599;50.906;6.786;2023-05-10T07:59:04;12.00;;;8.13;;
9128;SDS011;4599;50.906;6.786;2023-05-10T08:03:25;5.60;;;3.97;;
9128;SDS011;4599;50.906;6.786;2023-05-10T08:07:47;5.40;;;4.07;;
9128;SDS011;4599;50.906;6.786;2023-05-10T08:12:09;7.80;;;4.13;;
9128;SDS011;4599;50.906;6.786;2023-05-10T08:16:33;5.80;;;4.73;;
9128;SDS011;4599;50.906;6.786;2023-05-10T08:20:54;8.33;;;6.00;;
9128;SDS011;4599;50.906;6.786;2023-05-10T08:25:16;8.70;;;5.20;;
9128;SDS011;4599;50.906;6.786;2023-05-10T08:29:38;6.13;;;5.30;;
9128;SDS011;4599;50.906;6.786;2023-05-10T08:34:12;5.87;;;5.10;;
9128;SDS011;4599;50.906;6.786;2023-05-10T08:38:33;6.13;;;5.10;;
9128;SDS011;4599;50.906;6.786;2023-05-10T08:42:58;5.90;;;5.30;;
9128;SDS011;4599;50.906;6.786;2023-05-10T08:47:24;6.30;;;5.27;;
9128;SDS011;4599;50.906;6.786;2023-05-10T08:51:49;6.50;;;4.30;;
9128;SDS011;4599;50.906;6.786;2023-05-10T08:56:13;5.93;;;4.73;;
9128;SDS011;4599;50.906;6.786;2023-05-10T09:00:35;9.37;;;4.40;;
9128;SDS011;4599;50.906;6.786;2023-05-10T09:04:57;5.30;;;4.00;;
9128;SDS011;4599;50.906;6.786;2023-05-10T09:09:21;4.63;;;4.07;;
9128;SDS011;4599;50.906;6.786;2023-05-10T09:13:43;4.60;;;3.93;;
9128;SDS011;4599;50.906;6.786;2023-05-10T09:18:05;6.97;;;4.77;;
9128;SDS011;4599;50.906;6.786;2023-05-10T09:22:27;9.13;;;5.20;;
9128;SDS011;4599;50.906;6.786;2023-05-10T09:26:50;10.93;;;7.37;;
9128;SDS011;4599;50.906;6.786;2023-05-10T09:31:12;13.87;;;9.07;;
9128;SDS011;4599;50.906;6.786;2023-05-10T09:35:34;16.53;;;10.57;;
9128;SDS011;4599;50.906;6.786;2023-05-10T09:39:56;16.60;;;11.30;;
9128;SDS011;4599;50.906;6.786;2023-05-10T09:44:19;15.23;;;9.93;;
9128;SDS011;4599;50.906;6.786;2023-05-10T09:48:41;14.40;;;10.00;;
9128;SDS011;4599;50.906;6.786;2023-05-10T09:53:04;11.93;;;7.90;;
9128;SDS011;4599;50.906;6.786;2023-05-10T09:57:26;11.10;;;7.33;;
9128;SDS011;4599;50.906;6.786;2023-05-10T10:01:50;9.43;;;7.40;;
9128;SDS011;4599;50.906;6.786;2023-05-10T10:06:12;12.33;;;6.97;;
9128;SDS011;4599;50.906;6.786;2023-05-10T10:10:51;10.00;;;7.27;;
9128;SDS011;4599;50.906;6.786;2023-05-10T10:15:13;9.40;;;7.57;;
9128;SDS011;4599;50.906;6.786;2023-05-10T10:19:38;12.00;;;8.53;;
9128;SDS011;4599;50.906;6.786;2023-05-10T10:24:01;9.17;;;7.33;;
9128;SDS011;4599;50.906;6.786;2023-05-10T10:28:24;11.97;;;7.10;;
9128;SDS011;4599;50.906;6.786;2023-05-10T10:33:13;8.27;;;6.53;;
9128;SDS011;4599;50.906;6.786;2023-05-10T10:37:51;8.93;;;5.90;;
9128;SDS011;4599;50.906;6.786;2023-05-10T10:42:13;8.87;;;5.80;;
9128;SDS011;4599;50.906;6.786;2023-05-10T10:46:35;6.00;;;4.03;;
9128;SDS011;4599;50.906;6.786;2023-05-10T10:51:20;5.73;;;3.97;;
9128;SDS011;4599;50.906;6.786;2023-05-10T10:55:47;3.73;;;3.33;;
9128;SDS011;4599;50.906;6.786;2023-05-10T11:00:19;4.43;;;3.27;;
9128;SDS011;4599;50.906;6.786;2023-05-10T11:04:43;4.63;;;2.70;;
9128;SDS011;4599;50.906;6.786;2023-05-10T11:09:06;3.83;;;2.90;;
9128;SDS011;4599;50.906;6.786;2023-05-10T11:13:30;6.67;;;3.03;;
9128;SDS011;4599;50.906;6.786;2023-05-10T11:17:53;4.23;;;2.53;;
9128;SDS011;4599;50.906;6.786;2023-05-10T11:22:15;3.20;;;2.40;;
9128;SDS011;4599;50.906;6.786;2023-05-10T11:26:36;2.47;;;2.27;;
9128;SDS011;4599;50.906;6.786;2023-05-10T11:31:00;2.33;;;2.13;;
9128;SDS011;4599;50.906;6.786;2023-05-10T11:35:22;2.37;;;2.00;;
9128;SDS011;4599;50.906;6.786;2023-05-10T11:39:45;3.47;;;1.60;;
9128;SDS011;4599;50.906;6.786;2023-05-10T11:44:08;1.67;;;1.57;;
9128;SDS011;4599;50.906;6.786;2023-05-10T11:48:31;3.03;;;1.60;;
9128;SDS011;4599;50.906;6.786;2023-05-10T11:52:54;1.73;;;1.63;;
9128;SDS011;4599;50.906;6.786;2023-05-10T11:57:17;2.70;;;1.57;;
9128;SDS011;4599;50.906;6.786;2023-05-10T12:01:39;1.90;;;1.70;;
9128;SDS011;4599;50.906;6.786;2023-05-10T12:06:03;1.53;;;1.30;;
9128;SDS011;4599;50.906;6.786;2023-05-10T12:10:26;1.70;;;1.60;;
9128;SDS011;4599;50.906;6.786;2023-05-10T12:14:48;1.40;;;1.30;;
9128;SDS011;4599;50.906;6.786;2023-05-10T12:19:11;1.57;;;1.30;;
9128;SDS011;4599;50.906;6.786;2023-05-10T12:23:34;4.27;;;1.30;;
9128;SDS011;4599;50.906;6.786;2023-05-10T12:27:57;2.27;;;1.43;;
9128;SDS011;4599;50.906;6.786;2023-05-10T12:32:20;2.37;;;1.30;;
9128;SDS011;4599;50.906;6.786;2023-05-10T12:36:42;1.70;;;1.50;;
9128;SDS011;4599;50.906;6.786;2023-05-10T12:41:06;4.90;;;1.50;;
9128;SDS011;4599;50.906;6.786;2023-05-10T12:45:28;1.50;;;1.40;;
9128;SDS011;4599;50.906;6.786;2023-05-10T12:49:50;1.90;;;1.20;;
9128;SDS011;4599;50.906;6.786;2023-05-10T12:54:12;1.53;;;1.20;;
9128;SDS011;4599;50.906;6.786;2023-05-10T12:58:35;2.50;;;1.20;;
9128;SDS011;4599;50.906;6.786;2023-05-10T13:02:57;1.20;;;1.10;;
9128;SDS011;4599;50.906;6.786;2023-05-10T13:07:19;2.53;;;1.23;;
9128;SDS011;4599;50.906;6.786;2023-05-10T13:11:41;1.37;;;1.00;;
9128;SDS011;4599;50.906;6.786;2023-05-10T13:16:04;0.90;;;0.90;;
9128;SDS011;4599;50.906;6.786;2023-05-10T13:20:27;1.20;;;1.10;;
9128;SDS011;4599;50.906;6.786;2023-05-10T13:24:49;0.70;;;0.70;;
9128;SDS011;4599;50.906;6.786;2023-05-10T13:29:10;0.97;;;0.97;;
9128;SDS011;4599;50.906;6.786;2023-05-10T13:33:34;1.63;;;1.00;;
9128;SDS011;4599;50.906;6.786;2023-05-10T13:37:55;8.00;;;1.30;;
9128;SDS011;4599;50.906;6.786;2023-05-10T13:42:17;2.90;;;1.07;;
9128;SDS011;4599;50.906;6.786;2023-05-10T13:46:39;1.40;;;0.93;;
9128;SDS011;4599;50.906;6.786;2023-05-10T13:51:03;1.10;;;0.93;;
9128;SDS011;4599;50.906;6.786;2023-05-10T13:55:24;1.60;;;0.90;;
9128;SDS011;4599;50.906;6.786;2023-05-10T13:59:46;2.20;;;1.10;;
9128;SDS011;4599;50.906;6.786;2023-05-10T14:04:08;1.37;;;0.90;;
9128;SDS011;4599;50.906;6.786;2023-05-10T14:08:31;1.47;;;1.20;;
9128;SDS011;4599;50.906;6.786;2023-05-10T14:12:53;1.00;;;1.00;;
9128;SDS011;4599;50.906;6.786;2023-05-10T14:17:15;1.97;;;1.20;;
9128;SDS011;4599;50.906;6.786;2023-05-10T14:21:37;6.10;;;1.40;;
9128;SDS011;4599;50.906;6.786;2023-05-10T14:26:00;2.17;;;1.33;;
9128;SDS011;4599;50.906;6.786;2023-05-10T14:30:22;2.50;;;1.87;;
9128;SDS011;4599;50.906;6.786;2023-05-10T14:34:44;3.83;;;1.70;;
9128;SDS011;4599;50.906;6.786;2023-05-10T14:39:05;3.77;;;1.90;;
9128;SDS011;4599;50.906;6.786;2023-05-10T14:43:29;2.00;;;1.73;;
9128;SDS011;4599;50.906;6.786;2023-05-10T14:47:52;2.43;;;1.63;;
9128;SDS011;4599;50.906;6.786;2023-05-10T14:52:14;1.93;;;1.77;;
9128;SDS011;4599;50.906;6.786;2023-05-10T14:56:35;2.70;;;1.70;;
9128;SDS011;4599;50.906;6.786;2023-05-10T15:00:58;3.37;;;2.00;;
9128;SDS011;4599;50.906;6.786;2023-05-10T15:05:21;2.60;;;1.50;;
9128;SDS011;4599;50.906;6.786;2023-05-10T15:09:43;3.30;;;1.50;;
9128;SDS011;4599;50.906;6.786;2023-05-10T15:14:05;1.97;;;1.40;;
9128;SDS011;4599;50.906;6.786;2023-05-10T15:18:28;4.20;;;1.43;;
9128;SDS011;4599;50.906;6.786;2023-05-10T15:22:50;3.73;;;1.57;;
9128;SDS011;4599;50.906;6.786;2023-05-10T15:27:12;3.13;;;1.50;;
9128;SDS011;4599;50.906;6.786;2023-05-10T15:31:34;2.73;;;1.40;;
9128;SDS011;4599;50.906;6.786;2023-05-10T15:35:57;2.70;;;1.57;;
9128;SDS011;4599;50.906;6.786;2023-05-10T15:40:19;3.53;;;1.60;;
9128;SDS011;4599;50.906;6.786;2023-05-10T15:44:40;2.47;;;1.67;;
9128;SDS011;4599;50.906;6.786;2023-05-10T15:49:02;5.53;;;1.93;;
9128;SDS011;4599;50.906;6.786;2023-05-10T15:53:25;4.10;;;1.60;;
9128;SDS011;4599;50.906;6.786;2023-05-10T15:57:47;1.53;;;1.43;;
9128;SDS011;4599;50.906;6.786;2023-05-10T16:02:09;2.83;;;1.67;;
9128;SDS011;4599;50.906;6.786;2023-05-10T16:06:31;2.70;;;1.60;;
9128;SDS011;4599;50.906;6.786;2023-05-10T16:10:54;2.03;;;1.57;;
9128;SDS011;4599;50.906;6.786;2023-05-10T16:15:17;2.87;;;1.80;;
9128;SDS011;4599;50.906;6.786;2023-05-10T16:19:39;1.80;;;1.60;;
9128;SDS011;4599;50.906;6.786;2023-05-10T16:24:01;5.17;;;1.70;;
9128;SDS011;4599;50.906;6.786;2023-05-10T16:28:25;4.93;;;2.77;;
9128;SDS011;4599;50.906;6.786;2023-05-10T16:32:46;3.20;;;1.97;;
9128;SDS011;4599;50.906;6.786;2023-05-10T16:37:08;2.77;;;1.90;;
9128;SDS011;4599;50.906;6.786;2023-05-10T16:41:31;4.10;;;2.47;;
9128;SDS011;4599;50.906;6.786;2023-05-10T16:45:55;4.23;;;2.50;;
9128;SDS011;4599;50.906;6.786;2023-05-10T16:50:17;4.13;;;2.20;;
9128;SDS011;4599;50.906;6.786;2023-05-10T16:54:38;2.37;;;2.10;;
9128;SDS011;4599;50.906;6.786;2023-05-10T16:59:00;2.60;;;2.20;;
9128;SDS011;4599;50.906;6.786;2023-05-10T17:03:24;2.97;;;2.20;;
9128;SDS011;4599;50.906;6.786;2023-05-10T17:07:47;3.23;;;2.20;;
9128;SDS011;4599;50.906;6.786;2023-05-10T17:12:08;2.00;;;1.80;;
9128;SDS011;4599;50.906;6.786;2023-05-10T17:16:31;3.13;;;2.00;;
9128;SDS011;4599;50.906;6.786;2023-05-10T17:20:54;2.53;;;1.80;;
9128;SDS011;4599;50.906;6.786;2023-05-10T17:25:16;3.10;;;1.90;;
9128;SDS011;4599;50.906;6.786;2023-05-10T17:29:38;3.27;;;1.80;;
9128;SDS011;4599;50.906;6.786;2023-05-10T17:34:00;3.27;;;1.80;;
9128;SDS011;4599;50.906;6.786;2023-05-10T17:38:27;2.90;;;2.20;;
9128;SDS011;4599;50.906;6.786;2023-05-10T17:42:49;2.80;;;2.00;;
9128;SDS011;4599;50.906;6.786;2023-05-10T17:47:10;5.10;;;2.37;;
9128;SDS011;4599;50.906;6.786;2023-05-10T17:51:32;2.13;;;1.77;;
9128;SDS011;4599;50.906;6.786;2023-05-10T17:55:55;5.90;;;2.07;;
9128;SDS011;4599;50.906;6.786;2023-05-10T18:00:17;2.73;;;2.17;;
9128;SDS011;4599;50.906;6.786;2023-05-10T18:04:39;2.93;;;2.10;;
9128;SDS011;4599;50.906;6.786;2023-05-10T18:09:01;2.97;;;2.20;;
9128;SDS011;4599;50.906;6.786;2023-05-10T18:13:24;2.37;;;1.97;;
9128;SDS011;4599;50.906;6.786;2023-05-10T18:17:47;2.40;;;1.93;;
9128;SDS011;4599;50.906;6.786;2023-05-10T18:22:09;2.50;;;1.90;;
9128;SDS011;4599;50.906;6.786;2023-05-10T18:26:31;2.43;;;1.70;;
9128;SDS011;4599;50.906;6.786;2023-05-10T18:30:54;2.00;;;1.70;;
9128;SDS011;4599;50.906;6.786;2023-05-10T18:35:16;2.80;;;1.83;;
9128;SDS011;4599;50.906;6.786;2023-05-10T18:39:39;1.80;;;1.53;;
9128;SDS011;4599;50.906;6.786;2023-05-10T18:44:01;2.73;;;1.80;;
9128;SDS011;4599;50.906;6.786;2023-05-10T18:48:24;2.20;;;1.87;;
9128;SDS011;4599;50.906;6.786;2023-05-10T18:52:46;2.50;;;1.70;;
9128;SDS011;4599;50.906;6.786;2023-05-10T18:57:08;1.67;;;1.53;;
9128;SDS011;4599;50.906;6.786;2023-05-10T19:01:29;4.07;;;1.77;;
9128;SDS011;4599;50.906;6.786;2023-05-10T19:05:52;3.77;;;1.70;;
9128;SDS011;4599;50.906;6.786;2023-05-10T19:10:14;1.97;;;1.70;;
9128;SDS011;4599;50.906;6.786;2023-05-10T19:14:36;1.97;;;1.77;;
9128;SDS011;4599;50.906;6.786;2023-05-10T19:18:58;5.23;;;2.70;;
9128;SDS011;4599;50.906;6.786;2023-05-10T19:23:23;3.00;;;2.50;;
9128;SDS011;4599;50.906;6.786;2023-05-10T19:27:49;3.60;;;3.17;;
9128;SDS011;4599;50.906;6.786;2023-05-10T19:32:11;6.90;;;3.80;;
9128;SDS011;4599;50.906;6.786;2023-05-10T19:36:33;5.37;;;4.33;;
9128;SDS011;4599;50.906;6.786;2023-05-10T19:40:56;6.47;;;4.63;;
9128;SDS011;4599;50.906;6.786;2023-05-10T19:45:18;5.13;;;4.20;;
9128;SDS011;4599;50.906;6.786;2023-05-10T19:49:40;5.97;;;4.30;;
9128;SDS011;4599;50.906;6.786;2023-05-10T19:54:02;6.33;;;4.47;;
9128;SDS011;4599;50.906;6.786;2023-05-10T19:58:25;6.17;;;4.67;;
9128;SDS011;4599;50.906;6.786;2023-05-10T20:02:47;5.67;;;4.17;;
9128;SDS011;4599;50.906;6.786;2023-05-10T20:07:10;5.63;;;4.33;;
9128;SDS011;4599;50.906;6.786;2023-05-10T20:11:31;6.10;;;4.47;;
9128;SDS011;4599;50.906;6.786;2023-05-10T20:15:55;5.23;;;4.13;;
9128;SDS011;4599;50.906;6.786;2023-05-10T20:20:18;5.60;;;3.90;;
9128;SDS011;4599;50.906;6.786;2023-05-10T20:24:40;8.47;;;4.00;;
9128;SDS011;4599;50.906;6.786;2023-05-10T20:29:02;8.93;;;4.30;;
9128;SDS011;4599;50.906;6.786;2023-05-10T20:33:25;3.70;;;3.40;;
9128;SDS011;4599;50.906;6.786;2023-05-10T20:37:47;4.97;;;3.43;;
9128;SDS011;4599;50.906;6.786;2023-05-10T20:42:09;5.83;;;3.40;;
9128;SDS011;4599;50.906;6.786;2023-05-10T20:46:30;4.07;;;3.70;;
9128;SDS011;4599;50.906;6.786;2023-05-10T20:50:54;6.50;;;3.37;;
9128;SDS011;4599;50.906;6.786;2023-05-10T20:55:15;3.83;;;3.23;;
9128;SDS011;4599;50.906;6.786;2023-05-10T20:59:37;6.00;;;3.63;;
9128;SDS011;4599;50.906;6.786;2023-05-10T21:03:59;5.97;;;3.60;;
9128;SDS011;4599;50.906;6.786;2023-05-10T21:08:22;18.93;;;3.10;;
9128;SDS011;4599;50.906;6.786;2023-05-10T21:12:44;4.67;;;2.80;;
9128;SDS011;4599;50.906;6.786;2023-05-10T21:17:06;6.07;;;3.13;;
9128;SDS011;4599;50.906;6.786;2023-05-10T21:21:27;3.30;;;2.73;;
9128;SDS011;4599;50.906;6.786;2023-05-10T21:25:51;5.50;;;3.17;;
9128;SDS011;4599;50.906;6.786;2023-05-10T21:30:12;7.43;;;3.20;;
9128;SDS011;4599;50.906;6.786;2023-05-10T21:34:34;6.03;;;3.63;;
9128;SDS011;4599;50.906;6.786;2023-05-10T21:38:56;4.57;;;3.60;;
9128;SDS011;4599;50.906;6.786;2023-05-10T21:43:19;5.63;;;3.10;;
9128;SDS011;4599;50.906;6.786;2023-05-10T21:47:41;4.20;;;2.90;;
9128;SDS011;4599;50.906;6.786;2023-05-10T21:52:03;4.63;;;2.90;;
9128;SDS011;4599;50.906;6.786;2023-05-10T21:56:25;5.90;;;3.07;;
9128;SDS011;4599;50.906;6.786;2023-05-10T22:00:48;4.30;;;3.10;;
9128;SDS011;4599;50.906;6.786;2023-05-10T22:05:10;3.97;;;2.80;;
9128;SDS011;4599;50.906;6.786;2023-05-10T22:09:32;4.07;;;3.00;;
9128;SDS011;4599;50.906;6.786;2023-05-10T22:13:54;5.30;;;3.30;;
9128;SDS011;4599;50.906;6.786;2023-05-10T22:18:17;3.90;;;3.23;;
9128;SDS011;4599;50.906;6.786;2023-05-10T22:22:39;4.83;;;2.87;;
9128;SDS011;4599;50.906;6.786;2023-05-10T22:27:00;5.33;;;3.17;;
9128;SDS011;4599;50.906;6.786;2023-05-10T22:31:22;4.50;;;3.33;;
9128;SDS011;4599;50.906;6.786;2023-05-10T22:35:46;5.43;;;3.30;;
9128;SDS011;4599;50.906;6.786;2023-05-10T22:40:08;6.17;;;3.40;;
9128;SDS011;4599;50.906;6.786;2023-05-10T22:44:30;7.13;;;2.80;;
9128;SDS011;4599;50.906;6.786;2023-05-10T22:48:52;5.30;;;2.90;;
9128;SDS011;4599;50.906;6.786;2023-05-10T22:53:15;5.37;;;3.00;;
9128;SDS011;4599;50.906;6.786;2023-05-10T22:57:37;4.17;;;3.27;;
9128;SDS011;4599;50.906;6.786;2023-05-10T23:01:59;3.70;;;3.13;;
9128;SDS011;4599;50.906;6.786;2023-05-10T23:06:21;4.77;;;3.13;;
9128;SDS011;4599;50.906;6.786;2023-05-10T23:10:44;5.07;;;4.53;;
9128;SDS011;4599;50.906;6.786;2023-05-10T23:15:06;12.67;;;5.00;;
9128;SDS011;4599;50.906;6.786;2023-05-10T23:19:28;9.07;;;7.00;;
9128;SDS011;4599;50.906;6.786;2023-05-10T23:23:50;6.60;;;4.73;;
9128;SDS011;4599;50.906;6.786;2023-05-10T23:28:13;5.20;;;3.40;;
9128;SDS011;4599;50.906;6.786;2023-05-10T23:32:35;2.43;;;2.10;;
9128;SDS011;4599;50.906;6.786;2023-05-10T23:36:57;9.87;;;1.67;;
9128;SDS011;4599;50.906;6.786;2023-05-10T23:41:19;4.73;;;1.53;;
9128;SDS011;4599;50.906;6.786;2023-05-10T23:45:42;6.53;;;1.37;;
9128;SDS011;4599;50.906;6.786;2023-05-10T23:50:04;2.33;;;1.33;;
9128;SDS011;4599;50.906;6.786;2023-05-10T23:54:26;3.80;;;1.60;;
9128;SDS011;4599;50.906;6.786;2023-05-10T23:58:48;4.63;;;1.50;;
